THY9704 EFHK-LTFM
Flight info
| Callsign | THY9704 |
|---|---|
| Flight time | N/A |
| Altitude | 38000 |
| Route | KOIVU Y123 LARTI DCT OSLAX/N0469F390 DCT NEVTO/N0473F380 DCT BERIL/N0473F390 DCT NAPOT/N0474F380 DCT SUWGI DCT TOXAR/N0475F390 DCT LIBGA/N0475F400 DCT ROBTU/N0473F390 DCT KENIN DCT EBILO DCT RONBU DCT BUVAK DCT RIXEN |
| Aircraft | A333/H-SDE3GHIJ2J3J5M1RVWXY/LB2D1 |
Departure
| Time | N/A |
|---|---|
| Airport | Helsinki Vantaa Airport (EFHK) |
Arrival
| Time | 2026-02-18 11:25 |
|---|---|
| Airport | İstanbul Airport (LTFM) |
| Time | Latitude | Longitude | Altitude | Speed | Heading |
|---|---|---|---|---|---|
| 2026-02-18 09:46 | 50.83630 | 22.21371 | 37879 ft | 470 kts | 189° |
| 2026-02-18 09:46 | 50.80399 | 22.20770 | 37860 ft | 470 kts | 191° |
| 2026-02-18 09:47 | 50.74132 | 22.19432 | 37866 ft | 470 kts | 191° |
| 2026-02-18 09:47 | 50.67588 | 22.18014 | 37871 ft | 471 kts | 191° |
| 2026-02-18 09:48 | 50.61041 | 22.16615 | 37873 ft | 470 kts | 191° |
| 2026-02-18 09:48 | 50.54480 | 22.15222 | 37873 ft | 469 kts | 191° |
| 2026-02-18 09:49 | 50.44677 | 22.13153 | 37866 ft | 472 kts | 191° |
| 2026-02-18 09:50 | 50.38148 | 22.11780 | 37889 ft | 471 kts | 191° |
| 2026-02-18 09:50 | 50.31627 | 22.10414 | 37883 ft | 471 kts | 191° |
| 2026-02-18 09:51 | 50.25115 | 22.09052 | 37902 ft | 472 kts | 191° |
| 2026-02-18 09:51 | 50.18640 | 22.07701 | 37896 ft | 473 kts | 191° |
| 2026-02-18 09:52 | 50.12059 | 22.06336 | 37902 ft | 474 kts | 191° |
| 2026-02-18 09:52 | 50.05499 | 22.04976 | 37894 ft | 473 kts | 191° |
| 2026-02-18 09:53 | 49.98942 | 22.03621 | 37910 ft | 474 kts | 191° |
| 2026-02-18 09:53 | 49.89221 | 22.01619 | 37905 ft | 474 kts | 191° |
| 2026-02-18 09:54 | 49.82727 | 22.00286 | 37882 ft | 475 kts | 191° |
| 2026-02-18 09:54 | 49.76175 | 21.98944 | 37888 ft | 475 kts | 191° |
| 2026-02-18 09:55 | 49.69592 | 21.97600 | 37854 ft | 475 kts | 191° |
| 2026-02-18 09:55 | 49.63014 | 21.96260 | 37854 ft | 476 kts | 191° |
| 2026-02-18 09:56 | 49.56389 | 21.94915 | 37849 ft | 476 kts | 191° |
| 2026-02-18 09:56 | 49.49850 | 21.93592 | 37841 ft | 476 kts | 191° |
| 2026-02-18 09:57 | 49.39927 | 21.91588 | 37836 ft | 476 kts | 191° |
| 2026-02-18 09:58 | 49.33411 | 21.90277 | 37833 ft | 476 kts | 191° |
| 2026-02-18 09:58 | 49.26833 | 21.88957 | 37839 ft | 477 kts | 191° |
| 2026-02-18 09:59 | 49.20141 | 21.87619 | 37836 ft | 478 kts | 191° |
| 2026-02-18 09:59 | 49.13566 | 21.86306 | 37847 ft | 478 kts | 191° |
| 2026-02-18 10:00 | 49.06957 | 21.84990 | 37867 ft | 476 kts | 191° |
| 2026-02-18 10:00 | 49.00361 | 21.83678 | 37867 ft | 476 kts | 191° |
| 2026-02-18 10:01 | 48.93739 | 21.82565 | 37874 ft | 477 kts | 187° |
| 2026-02-18 10:01 | 48.83843 | 21.82767 | 37866 ft | 483 kts | 178° |
| 2026-02-18 10:02 | 48.77157 | 21.84110 | 37877 ft | 485 kts | 176° |
| 2026-02-18 10:02 | 48.70468 | 21.85534 | 37880 ft | 485 kts | 176° |
| 2026-02-18 10:03 | 48.63771 | 21.86945 | 37881 ft | 485 kts | 176° |
| 2026-02-18 10:03 | 48.57070 | 21.88355 | 37880 ft | 485 kts | 176° |
| 2026-02-18 10:04 | 48.50335 | 21.89766 | 37880 ft | 485 kts | 176° |
| 2026-02-18 10:04 | 48.43617 | 21.91371 | 37890 ft | 488 kts | 171° |
| 2026-02-18 10:05 | 48.33820 | 21.96464 | 37894 ft | 494 kts | 157° |
| 2026-02-18 10:06 | 48.27860 | 22.01726 | 37905 ft | 494 kts | 147° |
| 2026-02-18 10:06 | 48.22308 | 22.07805 | 37914 ft | 492 kts | 146° |
| 2026-02-18 10:07 | 48.16750 | 22.13919 | 37897 ft | 491 kts | 146° |
| 2026-02-18 10:07 | 48.11158 | 22.20024 | 37884 ft | 491 kts | 146° |
| 2026-02-18 10:08 | 48.05550 | 22.26113 | 37879 ft | 491 kts | 146° |
| 2026-02-18 10:08 | 47.99983 | 22.32138 | 37879 ft | 491 kts | 146° |
| 2026-02-18 10:09 | 47.94422 | 22.38137 | 37889 ft | 491 kts | 146° |
| 2026-02-18 10:09 | 47.86193 | 22.46986 | 37882 ft | 491 kts | 146° |
| 2026-02-18 10:10 | 47.80582 | 22.52996 | 37886 ft | 490 kts | 146° |
| 2026-02-18 10:10 | 47.75167 | 22.59411 | 37787 ft | 488 kts | 141° |
| 2026-02-18 10:11 | 47.72593 | 22.62656 | 37416 ft | 487 kts | 141° |
| 2026-02-18 10:11 | 47.70117 | 22.65777 | 37047 ft | 487 kts | 142° |
| 2026-02-18 10:11 | 47.67469 | 22.69095 | 36909 ft | 488 kts | 142° |
| 2026-02-18 10:11 | 47.64807 | 22.72409 | 36908 ft | 492 kts | 142° |
| 2026-02-18 10:12 | 47.59545 | 22.78913 | 36913 ft | 500 kts | 142° |
| 2026-02-18 10:12 | 47.54199 | 22.85491 | 36912 ft | 500 kts | 142° |
| 2026-02-18 10:13 | 47.46093 | 22.95424 | 36910 ft | 500 kts | 142° |
| 2026-02-18 10:14 | 47.40682 | 23.02033 | 36885 ft | 499 kts | 142° |
| 2026-02-18 10:14 | 47.35251 | 23.08646 | 36884 ft | 500 kts | 142° |
| 2026-02-18 10:15 | 47.29872 | 23.15176 | 36885 ft | 498 kts | 142° |
| 2026-02-18 10:15 | 47.24477 | 23.21707 | 36859 ft | 497 kts | 142° |
| 2026-02-18 10:16 | 47.19156 | 23.28134 | 36887 ft | 497 kts | 143° |
| 2026-02-18 10:16 | 47.13795 | 23.34590 | 36856 ft | 497 kts | 142° |
| 2026-02-18 10:17 | 47.08350 | 23.41128 | 36871 ft | 498 kts | 143° |
| 2026-02-18 10:17 | 47.00260 | 23.50818 | 36827 ft | 498 kts | 142° |
| 2026-02-18 10:18 | 46.94857 | 23.57264 | 36853 ft | 497 kts | 142° |
| 2026-02-18 10:18 | 46.89525 | 23.63610 | 36849 ft | 496 kts | 142° |
| 2026-02-18 10:19 | 46.84110 | 23.70037 | 36849 ft | 496 kts | 143° |
| 2026-02-18 10:19 | 46.78752 | 23.76377 | 36840 ft | 496 kts | 143° |
| 2026-02-18 10:20 | 46.73337 | 23.82765 | 36861 ft | 497 kts | 143° |
| 2026-02-18 10:20 | 46.67904 | 23.89164 | 36863 ft | 496 kts | 143° |
| 2026-02-18 10:21 | 46.59810 | 23.98659 | 36835 ft | 495 kts | 143° |
| 2026-02-18 10:22 | 46.54365 | 24.05024 | 36870 ft | 496 kts | 143° |
| 2026-02-18 10:22 | 46.48969 | 24.11322 | 36852 ft | 493 kts | 143° |
| 2026-02-18 10:23 | 46.43668 | 24.17485 | 36829 ft | 493 kts | 143° |
| 2026-02-18 10:23 | 46.38263 | 24.23759 | 36845 ft | 494 kts | 143° |
| 2026-02-18 10:24 | 46.32822 | 24.30056 | 36788 ft | 495 kts | 143° |
| 2026-02-18 10:24 | 46.27408 | 24.36302 | 36815 ft | 497 kts | 143° |
| 2026-02-18 10:25 | 46.21994 | 24.42536 | 36861 ft | 497 kts | 143° |
| 2026-02-18 10:25 | 46.13825 | 24.51908 | 36841 ft | 497 kts | 143° |
| 2026-02-18 10:26 | 46.08350 | 24.58170 | 36790 ft | 495 kts | 143° |
| 2026-02-18 10:26 | 46.02890 | 24.64399 | 36813 ft | 494 kts | 143° |
| 2026-02-18 10:27 | 45.97646 | 24.70369 | 36815 ft | 495 kts | 144° |
| 2026-02-18 10:27 | 45.92213 | 24.76537 | 36760 ft | 494 kts | 144° |
| 2026-02-18 10:28 | 45.86997 | 24.82443 | 36775 ft | 494 kts | 144° |
| 2026-02-18 10:28 | 45.81574 | 24.88566 | 36813 ft | 495 kts | 144° |
| 2026-02-18 10:29 | 45.73471 | 24.97686 | 36736 ft | 496 kts | 144° |
| 2026-02-18 10:30 | 45.68084 | 25.03735 | 36728 ft | 494 kts | 144° |
| 2026-02-18 10:30 | 45.62604 | 25.09867 | 36728 ft | 494 kts | 144° |
| 2026-02-18 10:31 | 45.57232 | 25.15867 | 36737 ft | 492 kts | 144° |
| 2026-02-18 10:31 | 45.51814 | 25.21900 | 36723 ft | 490 kts | 144° |
| 2026-02-18 10:32 | 45.46373 | 25.27931 | 36719 ft | 489 kts | 144° |
| 2026-02-18 10:32 | 45.40944 | 25.33931 | 36666 ft | 491 kts | 144° |
| 2026-02-18 10:33 | 45.35485 | 25.39967 | 36665 ft | 490 kts | 144° |
| 2026-02-18 10:33 | 45.27359 | 25.48919 | 36683 ft | 492 kts | 144° |
| 2026-02-18 10:34 | 45.21929 | 25.54881 | 36639 ft | 490 kts | 144° |
| 2026-02-18 10:34 | 45.16517 | 25.60813 | 36689 ft | 492 kts | 144° |
| 2026-02-18 10:35 | 45.11168 | 25.66656 | 36669 ft | 490 kts | 144° |
| 2026-02-18 10:35 | 45.05718 | 25.72600 | 36694 ft | 490 kts | 144° |
| 2026-02-18 10:36 | 45.00304 | 25.78490 | 36706 ft | 490 kts | 144° |
| 2026-02-18 10:36 | 44.98502 | 25.80444 | 36696 ft | 490 kts | 144° |
| 2026-02-18 10:37 | 44.86650 | 25.93270 | 36733 ft | 494 kts | 144° |
| 2026-02-18 10:38 | 44.81191 | 25.99157 | 36710 ft | 490 kts | 144° |
| 2026-02-18 10:38 | 44.75835 | 26.04918 | 36754 ft | 489 kts | 144° |
| 2026-02-18 10:39 | 44.70374 | 26.10780 | 36744 ft | 492 kts | 144° |
| 2026-02-18 10:39 | 44.64903 | 26.16637 | 36763 ft | 493 kts | 144° |
| 2026-02-18 10:40 | 44.59430 | 26.22484 | 36760 ft | 493 kts | 144° |
| 2026-02-18 10:40 | 44.53907 | 26.28367 | 36763 ft | 494 kts | 144° |
| 2026-02-18 10:41 | 44.48415 | 26.34201 | 36705 ft | 494 kts | 144° |
| 2026-02-18 10:41 | 44.40140 | 26.42976 | 36733 ft | 494 kts | 144° |
| 2026-02-18 10:42 | 44.34625 | 26.48804 | 36761 ft | 495 kts | 144° |
| 2026-02-18 10:42 | 44.29137 | 26.54590 | 36754 ft | 495 kts | 144° |
| 2026-02-18 10:43 | 44.23583 | 26.60431 | 36767 ft | 497 kts | 144° |
| 2026-02-18 10:43 | 44.18181 | 26.66095 | 36741 ft | 495 kts | 145° |
| 2026-02-18 10:44 | 44.12626 | 26.71907 | 36747 ft | 496 kts | 144° |
| 2026-02-18 10:44 | 44.07151 | 26.77620 | 36724 ft | 495 kts | 144° |
| 2026-02-18 10:45 | 43.98914 | 26.86193 | 36758 ft | 496 kts | 144° |
| 2026-02-18 10:46 | 43.93430 | 26.91882 | 36734 ft | 494 kts | 144° |
| 2026-02-18 10:46 | 43.87955 | 26.97548 | 36682 ft | 496 kts | 144° |
| 2026-02-18 10:47 | 43.82428 | 27.03254 | 36702 ft | 496 kts | 145° |
| 2026-02-18 10:47 | 43.76883 | 27.08963 | 36682 ft | 497 kts | 144° |
| 2026-02-18 10:48 | 43.71305 | 27.14698 | 36683 ft | 497 kts | 144° |
| 2026-02-18 10:48 | 43.65736 | 27.20408 | 36705 ft | 496 kts | 144° |
| 2026-02-18 10:49 | 43.60189 | 27.26082 | 36693 ft | 497 kts | 145° |
| 2026-02-18 10:49 | 43.51884 | 27.34550 | 36649 ft | 497 kts | 144° |
| 2026-02-18 10:50 | 43.46278 | 27.40253 | 36656 ft | 497 kts | 145° |
| 2026-02-18 10:50 | 43.40819 | 27.45792 | 36620 ft | 497 kts | 145° |
| 2026-02-18 10:51 | 43.35209 | 27.51472 | 36647 ft | 497 kts | 145° |
| 2026-02-18 10:51 | 43.29593 | 27.57144 | 36629 ft | 497 kts | 145° |
| 2026-02-18 10:52 | 43.23979 | 27.62801 | 36645 ft | 498 kts | 144° |
| 2026-02-18 10:52 | 43.18378 | 27.68435 | 36583 ft | 497 kts | 146° |
| 2026-02-18 10:53 | 43.09925 | 27.76903 | 36626 ft | 496 kts | 146° |
| 2026-02-18 10:54 | 43.04353 | 27.82471 | 36621 ft | 495 kts | 146° |
| 2026-02-18 10:54 | 42.98808 | 27.88001 | 36621 ft | 496 kts | 145° |
| 2026-02-18 10:55 | 42.93315 | 27.93470 | 36645 ft | 489 kts | 146° |
| 2026-02-18 10:55 | 42.87901 | 27.98847 | 36656 ft | 485 kts | 146° |
| 2026-02-18 10:56 | 42.82406 | 28.04287 | 36612 ft | 481 kts | 146° |
| 2026-02-18 10:56 | 42.79664 | 28.06997 | 36309 ft | 479 kts | 146° |
| 2026-02-18 10:56 | 42.76991 | 28.09636 | 35867 ft | 477 kts | 146° |
| 2026-02-18 10:56 | 42.74366 | 28.12223 | 35454 ft | 474 kts | 145° |
| 2026-02-18 10:57 | 42.71711 | 28.14839 | 35061 ft | 472 kts | 145° |
| 2026-02-18 10:57 | 42.66372 | 28.20091 | 34085 ft | 470 kts | 145° |
| 2026-02-18 10:57 | 42.63728 | 28.22642 | 33582 ft | 469 kts | 148° |
| 2026-02-18 10:58 | 42.60796 | 28.24705 | 33164 ft | 469 kts | 158° |
| 2026-02-18 10:58 | 42.57773 | 28.26029 | 32715 ft | 468 kts | 167° |
| 2026-02-18 10:58 | 42.54609 | 28.26737 | 32191 ft | 469 kts | 176° |
| 2026-02-18 10:58 | 42.51467 | 28.27024 | 31706 ft | 470 kts | 178° |
| 2026-02-18 10:59 | 42.48302 | 28.27242 | 31248 ft | 471 kts | 178° |
| 2026-02-18 10:59 | 42.45060 | 28.27453 | 30735 ft | 471 kts | 178° |
| 2026-02-18 10:59 | 42.41780 | 28.27681 | 30159 ft | 471 kts | 178° |
| 2026-02-18 10:59 | 42.38580 | 28.27913 | 29518 ft | 472 kts | 178° |
| 2026-02-18 11:00 | 42.35352 | 28.28150 | 28845 ft | 473 kts | 177° |
| 2026-02-18 11:00 | 42.32062 | 28.28395 | 28016 ft | 477 kts | 178° |
| 2026-02-18 11:00 | 42.28889 | 28.28649 | 27305 ft | 478 kts | 178° |
| 2026-02-18 11:00 | 42.25621 | 28.28898 | 26651 ft | 477 kts | 178° |
| 2026-02-18 11:01 | 42.22268 | 28.29164 | 26078 ft | 474 kts | 178° |
| 2026-02-18 11:01 | 42.15887 | 28.29666 | 25219 ft | 462 kts | 178° |
| 2026-02-18 11:01 | 42.12736 | 28.29912 | 24742 ft | 457 kts | 179° |
| 2026-02-18 11:02 | 42.09563 | 28.30161 | 24244 ft | 453 kts | 178° |
| 2026-02-18 11:02 | 42.06472 | 28.30402 | 23627 ft | 451 kts | 178° |
| 2026-02-18 11:02 | 42.03505 | 28.30631 | 23076 ft | 448 kts | 178° |
| 2026-02-18 11:02 | 42.00415 | 28.30870 | 22586 ft | 443 kts | 178° |
| 2026-02-18 11:03 | 41.97426 | 28.31102 | 22075 ft | 439 kts | 178° |
| 2026-02-18 11:03 | 41.94401 | 28.31335 | 21530 ft | 436 kts | 178° |
| 2026-02-18 11:03 | 41.91512 | 28.31557 | 21027 ft | 433 kts | 178° |
| 2026-02-18 11:03 | 41.88581 | 28.31783 | 20506 ft | 430 kts | 178° |
| 2026-02-18 11:04 | 41.85575 | 28.32015 | 19992 ft | 426 kts | 177° |
| 2026-02-18 11:04 | 41.82658 | 28.32241 | 19429 ft | 424 kts | 178° |
| 2026-02-18 11:04 | 41.79805 | 28.32461 | 18919 ft | 421 kts | 178° |
| 2026-02-18 11:04 | 41.76888 | 28.32685 | 18424 ft | 418 kts | 178° |
| 2026-02-18 11:05 | 41.74003 | 28.32908 | 17849 ft | 417 kts | 178° |
| 2026-02-18 11:05 | 41.68340 | 28.33341 | 16878 ft | 410 kts | 178° |
| 2026-02-18 11:05 | 41.65612 | 28.33550 | 16394 ft | 408 kts | 177° |
| 2026-02-18 11:06 | 41.62826 | 28.33764 | 15864 ft | 407 kts | 177° |
| 2026-02-18 11:06 | 41.60089 | 28.33976 | 15341 ft | 405 kts | 178° |
| 2026-02-18 11:06 | 41.57382 | 28.34191 | 14942 ft | 400 kts | 178° |
| 2026-02-18 11:06 | 41.54720 | 28.34394 | 14602 ft | 394 kts | 178° |
| 2026-02-18 11:07 | 41.52140 | 28.34594 | 14425 ft | 384 kts | 179° |
| 2026-02-18 11:07 | 41.49551 | 28.34794 | 14245 ft | 374 kts | 179° |
| 2026-02-18 11:07 | 41.47010 | 28.34985 | 14076 ft | 364 kts | 178° |
| 2026-02-18 11:07 | 41.44559 | 28.35165 | 13909 ft | 355 kts | 178° |
| 2026-02-18 11:08 | 41.42141 | 28.35346 | 13744 ft | 347 kts | 178° |
| 2026-02-18 11:08 | 41.39746 | 28.35528 | 13587 ft | 339 kts | 179° |
| 2026-02-18 11:08 | 41.37431 | 28.35706 | 13439 ft | 331 kts | 179° |
| 2026-02-18 11:08 | 41.35173 | 28.35880 | 13286 ft | 323 kts | 179° |
| 2026-02-18 11:09 | 41.32957 | 28.36051 | 13143 ft | 315 kts | 180° |
| 2026-02-18 11:09 | 41.28698 | 28.36364 | 12777 ft | 305 kts | 179° |
| 2026-02-18 11:09 | 41.26563 | 28.36521 | 12436 ft | 306 kts | 179° |
| 2026-02-18 11:10 | 41.24418 | 28.36683 | 12120 ft | 305 kts | 180° |
| 2026-02-18 11:10 | 41.22298 | 28.36853 | 11874 ft | 302 kts | 181° |
| 2026-02-18 11:10 | 41.20238 | 28.37009 | 11605 ft | 300 kts | 181° |
| 2026-02-18 11:10 | 41.18220 | 28.37155 | 11307 ft | 299 kts | 180° |
| 2026-02-18 11:11 | 41.16077 | 28.37315 | 10969 ft | 300 kts | 181° |
| 2026-02-18 11:11 | 41.14002 | 28.37473 | 10729 ft | 298 kts | 181° |
| 2026-02-18 11:11 | 41.11972 | 28.37627 | 10418 ft | 298 kts | 181° |
| 2026-02-18 11:11 | 41.09913 | 28.37781 | 10100 ft | 298 kts | 181° |
| 2026-02-18 11:12 | 41.07785 | 28.37941 | 9848 ft | 294 kts | 181° |
| 2026-02-18 11:12 | 41.05805 | 28.38089 | 9646 ft | 292 kts | 181° |
| 2026-02-18 11:12 | 41.03819 | 28.38234 | 9340 ft | 293 kts | 181° |
| 2026-02-18 11:12 | 41.01826 | 28.38380 | 9014 ft | 294 kts | 180° |
| 2026-02-18 11:13 | 40.99806 | 28.38534 | 8719 ft | 294 kts | 180° |
| 2026-02-18 11:13 | 40.96143 | 28.40334 | 8367 ft | 295 kts | 130° |
| 2026-02-18 11:13 | 40.95141 | 28.42635 | 8255 ft | 288 kts | 111° |
| 2026-02-18 11:14 | 40.94386 | 28.45081 | 8120 ft | 282 kts | 111° |
| 2026-02-18 11:14 | 40.93607 | 28.47454 | 7990 ft | 277 kts | 115° |
| 2026-02-18 11:14 | 40.92772 | 28.49668 | 7871 ft | 271 kts | 117° |
| 2026-02-18 11:14 | 40.91891 | 28.51813 | 7736 ft | 267 kts | 118° |
| 2026-02-18 11:15 | 40.90974 | 28.53954 | 7493 ft | 265 kts | 118° |
| 2026-02-18 11:15 | 40.90059 | 28.56080 | 7220 ft | 265 kts | 120° |
| 2026-02-18 11:15 | 40.89249 | 28.58233 | 6936 ft | 263 kts | 101° |
| 2026-02-18 11:15 | 40.89276 | 28.60565 | 6647 ft | 257 kts | 71° |
| 2026-02-18 11:16 | 40.89870 | 28.62751 | 6391 ft | 254 kts | 63° |
| 2026-02-18 11:16 | 40.90554 | 28.64892 | 6108 ft | 254 kts | 64° |
| 2026-02-18 11:16 | 40.91206 | 28.67048 | 5840 ft | 254 kts | 67° |
| 2026-02-18 11:16 | 40.92004 | 28.69074 | 5569 ft | 249 kts | 44° |
| 2026-02-18 11:17 | 40.93297 | 28.70352 | 5351 ft | 239 kts | 25° |
| 2026-02-18 11:17 | 40.96128 | 28.72323 | 5031 ft | 231 kts | 23° |
| 2026-02-18 11:17 | 40.97583 | 28.73201 | 5019 ft | 220 kts | 8° |
| 2026-02-18 11:18 | 40.99077 | 28.73406 | 5021 ft | 210 kts | 354° |
| 2026-02-18 11:18 | 41.00529 | 28.73353 | 5022 ft | 205 kts | 352° |
| 2026-02-18 11:18 | 41.01932 | 28.73274 | 5005 ft | 194 kts | 352° |
| 2026-02-18 11:18 | 41.03254 | 28.73214 | 4940 ft | 185 kts | 352° |
| 2026-02-18 11:19 | 41.04520 | 28.73169 | 4702 ft | 177 kts | 353° |
| 2026-02-18 11:19 | 41.05714 | 28.73136 | 4454 ft | 171 kts | 353° |
| 2026-02-18 11:19 | 41.06866 | 28.73114 | 4224 ft | 164 kts | 354° |
| 2026-02-18 11:19 | 41.07969 | 28.73094 | 3999 ft | 157 kts | 353° |
| 2026-02-18 11:20 | 41.09050 | 28.73076 | 3776 ft | 150 kts | 354° |
| 2026-02-18 11:20 | 41.10084 | 28.73062 | 3581 ft | 149 kts | 354° |
| 2026-02-18 11:20 | 41.11108 | 28.73048 | 3385 ft | 146 kts | 353° |
| 2026-02-18 11:20 | 41.12099 | 28.73033 | 3196 ft | 142 kts | 353° |
| 2026-02-18 11:21 | 41.13088 | 28.73017 | 2995 ft | 141 kts | 353° |
| 2026-02-18 11:21 | 41.15036 | 28.72980 | 2612 ft | 143 kts | 354° |
| 2026-02-18 11:21 | 41.16032 | 28.72963 | 2420 ft | 144 kts | 353° |
| 2026-02-18 11:22 | 41.17004 | 28.72946 | 2223 ft | 143 kts | 354° |
| 2026-02-18 11:22 | 41.17993 | 28.72929 | 2010 ft | 142 kts | 353° |
| 2026-02-18 11:22 | 41.18961 | 28.72913 | 1805 ft | 136 kts | 354° |
| 2026-02-18 11:22 | 41.19877 | 28.72898 | 1610 ft | 129 kts | 352° |
| 2026-02-18 11:23 | 41.20726 | 28.72881 | 1445 ft | 129 kts | 353° |
| 2026-02-18 11:23 | 41.21635 | 28.72863 | 1282 ft | 129 kts | 353° |
| 2026-02-18 11:23 | 41.22511 | 28.72848 | 1117 ft | 131 kts | 354° |
| 2026-02-18 11:23 | 41.23392 | 28.72860 | 982 ft | 132 kts | 354° |
| 2026-02-18 11:24 | 41.24271 | 28.72916 | 735 ft | 132 kts | 349° |
| 2026-02-18 11:24 | 41.25185 | 28.72906 | 545 ft | 130 kts | 343° |
| 2026-02-18 11:24 | 41.26031 | 28.72819 | 395 ft | 131 kts | 347° |
| 2026-02-18 11:24 | 41.26878 | 28.72754 | 311 ft | 111 kts | 354° |
| 2026-02-18 11:25 | 41.27343 | 28.72748 | 295 ft | 41 kts | 358° |
| 2026-02-18 11:25 | 41.27628 | 28.72739 | 283 ft | 1 kts | 359° |
| 2026-02-18 11:25 | 41.27629 | 28.72739 | 283 ft | 0 kts | 359° |
| 2026-02-18 11:26 | 41.27667 | 28.72739 | 281 ft | 12 kts | 0° |
| 2026-02-18 11:26 | 41.27782 | 28.72740 | 276 ft | 21 kts | 1° |
| 2026-02-18 11:26 | 41.27948 | 28.72759 | 271 ft | 27 kts | 11° |
| 2026-02-18 11:26 | 41.28094 | 28.72860 | 267 ft | 16 kts | 45° |
| 2026-02-18 11:27 | 41.28114 | 28.72899 | 266 ft | 0 kts | 65° |
| 2026-02-18 11:27 | 41.28114 | 28.72901 | 266 ft | 1 kts | 64° |
| 2026-02-18 11:27 | 41.28119 | 28.72939 | 266 ft | 6 kts | 100° |
| 2026-02-18 11:27 | 41.28069 | 28.72975 | 268 ft | 11 kts | 175° |
| 2026-02-18 11:28 | 41.27977 | 28.72974 | 270 ft | 14 kts | 186° |
| 2026-02-18 11:28 | 41.27866 | 28.72974 | 273 ft | 17 kts | 176° |
| 2026-02-18 11:28 | 41.27739 | 28.72979 | 278 ft | 19 kts | 180° |
| 2026-02-18 11:28 | 41.27604 | 28.72983 | 283 ft | 20 kts | 178° |
| 2026-02-18 11:29 | 41.27461 | 28.72986 | 289 ft | 21 kts | 179° |
| 2026-02-18 11:29 | 41.27197 | 28.72991 | 300 ft | 16 kts | 179° |
| 2026-02-18 11:29 | 41.27092 | 28.72994 | 304 ft | 14 kts | 178° |
| 2026-02-18 11:30 | 41.26995 | 28.72999 | 307 ft | 13 kts | 168° |
| 2026-02-18 11:30 | 41.26948 | 28.73084 | 307 ft | 13 kts | 96° |
| 2026-02-18 11:30 | 41.26947 | 28.73210 | 305 ft | 15 kts | 90° |
| 2026-02-18 11:30 | 41.26913 | 28.73331 | 306 ft | 15 kts | 143° |
| 2026-02-18 11:31 | 41.26866 | 28.73429 | 306 ft | 12 kts | 97° |
| 2026-02-18 11:31 | 41.26852 | 28.73509 | 306 ft | 8 kts | 126° |
| 2026-02-18 11:31 | 41.26804 | 28.73533 | 306 ft | 8 kts | 175° |
| 2026-02-18 11:31 | 41.26773 | 28.73535 | 306 ft | 0 kts | 179° |